Time;durP1;ratioP1;P1;durP2;ratioP2;P2;SDS_P1;SDS_P2;PMS_P1;PMS_P2;Temp;Humidity;BMP_temperature;BMP_pressure;BME280_temperature;BME280_humidity;BME280_pressure;Samples;Min_cycle;Max_cycle;Signal;HPM_P1;HPM_P2
2021/12/15 00:00:25;;;;;;;58.17;7.05;;;0.40;99.90;;;;;;5073162;28;20111;-77
2021/12/15 00:02:52;;;;;;;87.45;8.10;;;0.50;99.90;;;;;;5073064;28;20075;-76
2021/12/15 00:05:22;;;;;;;45.25;6.85;;;0.50;99.90;;;;;;5055053;28;20040;-75
2021/12/15 00:07:54;;;;;;;55.45;7.78;;;0.40;99.90;;;;;;5072663;28;20064;-76
2021/12/15 00:10:21;;;;;;;33.15;7.03;;;0.40;99.90;;;;;;5072649;28;20032;-76
2021/12/15 00:12:47;;;;;;;194.95;13.48;;;0.40;99.90;;;;;;5072856;28;20106;-80
2021/12/15 00:15:14;;;;;;;201.38;13.82;;;0.40;99.90;;;;;;5072585;28;20090;-75
2021/12/15 00:17:40;;;;;;;299.48;18.50;;;0.40;99.90;;;;;;5054566;28;20044;-76
2021/12/15 00:20:09;;;;;;;396.95;22.45;;;0.40;99.90;;;;;;5072770;28;20028;-76
2021/12/15 00:22:36;;;;;;;294.42;19.02;;;0.40;99.90;;;;;;5072831;28;20491;-75
2021/12/15 00:25:05;;;;;;;26.58;9.25;;;0.40;99.90;;;;;;5072791;28;20032;-76
2021/12/15 00:27:31;;;;;;;118.03;13.18;;;0.40;99.90;;;;;;5072832;28;20071;-76
2021/12/15 00:29:57;;;;;;;303.23;20.02;;;0.40;99.90;;;;;;5072899;28;20553;-75
2021/12/15 00:32:22;;;;;;;98.35;16.15;;;0.40;99.90;;;;;;5091135;28;20044;-75
2021/12/15 00:34:51;;;;;;;57.28;13.35;;;0.40;99.90;;;;;;5092922;28;20040;-75
2021/12/15 00:37:17;;;;;;;96.65;15.15;;;0.50;99.90;;;;;;5092943;28;20046;-75
2021/12/15 00:39:43;;;;;;;70.28;13.82;;;0.50;99.90;;;;;;5108610;28;20078;-75
2021/12/15 00:42:09;;;;;;;57.35;12.55;;;0.50;99.90;;;;;;5074419;28;20035;-76
2021/12/15 00:44:35;;;;;;;27.67;11.20;;;0.60;99.90;;;;;;5092653;28;20135;-75
2021/12/15 00:47:02;;;;;;;59.75;13.70;;;3.10;99.90;;;;;;5092914;28;20063;-75
2021/12/15 00:49:28;;;;;;;65.90;19.00;;;0.70;99.90;;;;;;5092872;28;20043;-76
2021/12/15 00:51:54;;;;;;;70.97;11.50;;;0.60;99.90;;;;;;5092820;28;20051;-75
2021/12/15 00:54:22;;;;;;;18.75;8.02;;;0.50;99.90;;;;;;5092846;28;20418;-75
2021/12/15 00:56:50;;;;;;;16.23;7.35;;;0.30;99.90;;;;;;5092774;28;20442;-75
2021/12/15 00:59:16;;;;;;;18.73;7.13;;;0.20;99.90;;;;;;5092584;28;20059;-75
2021/12/15 01:01:42;;;;;;;28.67;6.60;;;0.30;99.90;;;;;;5074491;28;20399;-76
2021/12/15 01:04:11;;;;;;;28.88;6.82;;;0.10;99.90;;;;;;5095996;28;20046;-82
2021/12/15 01:06:39;;;;;;;28.45;6.80;;;0.00;99.90;;;;;;5096604;28;20035;-79
2021/12/15 01:09:17;;;;;;;15.10;6.07;;;0.00;99.90;;;;;;5096491;28;20669;-78
2021/12/15 01:14:33;;;;;;;96.53;10.32;;;0.00;99.90;;;;;;5096441;28;20051;-77
2021/12/15 01:22:38;;;;;;;13.57;6.43;;;-0.20;99.90;;;;;;5096084;28;20040;-75
2021/12/15 01:25:18;;;;;;;14.90;6.95;;;-0.20;99.90;;;;;;5095463;28;20482;-76
2021/12/15 01:27:45;;;;;;;42.70;8.50;;;-0.10;99.90;;;;;;5095894;28;20040;-75
2021/12/15 01:30:14;;;;;;;29.48;7.97;;;0.00;99.90;;;;;;5095863;28;20051;-76
2021/12/15 01:32:40;;;;;;;23.15;7.95;;;0.00;99.90;;;;;;5077582;28;20044;-76
2021/12/15 01:35:07;;;;;;;29.83;9.68;;;0.10;99.90;;;;;;5077825;28;20499;-75
2021/12/15 01:37:33;;;;;;;22.15;7.85;;;0.10;99.90;;;;;;5077740;28;20036;-75
2021/12/15 01:39:59;;;;;;;21.58;9.65;;;0.10;99.90;;;;;;5077744;28;20577;-76
2021/12/15 01:42:28;;;;;;;28.63;8.40;;;0.20;99.90;;;;;;5077651;28;20035;-75
2021/12/15 01:47:39;;;;;;;98.38;9.98;;;0.00;99.90;;;;;;5095758;28;20414;-76
2021/12/15 01:50:07;;;;;;;59.08;10.63;;;0.00;99.90;;;;;;5095414;28;20047;-76
2021/12/15 01:52:37;;;;;;;44.95;8.65;;;-0.10;99.90;;;;;;5095906;28;20036;-75
2021/12/15 01:55:05;;;;;;;51.08;9.98;;;-0.10;99.90;;;;;;5095740;28;20533;-76
2021/12/15 01:57:33;;;;;;;36.47;9.77;;;0.00;99.90;;;;;;5095536;28;20032;-76
2021/12/15 02:00:06;;;;;;;98.78;10.98;;;0.00;99.90;;;;;;5077637;28;20192;-75
2021/12/15 02:02:32;;;;;;;30.38;10.20;;;0.20;99.90;;;;;;5095632;28;20036;-75
2021/12/15 02:04:58;;;;;;;31.83;9.48;;;0.20;99.90;;;;;;5095377;28;20051;-75
2021/12/15 02:07:24;;;;;;;42.33;8.65;;;0.00;99.90;;;;;;5095233;28;20046;-76
2021/12/15 02:12:26;;;;;;;26.58;8.98;;;0.00;99.90;;;;;;5095705;28;20112;-75
2021/12/15 02:14:53;;;;;;;66.32;9.82;;;0.00;99.90;;;;;;5076802;28;20063;-75
2021/12/15 02:17:19;;;;;;;158.95;14.80;;;-0.10;99.90;;;;;;5094852;28;20114;-75
2021/12/15 02:19:46;;;;;;;181.23;14.50;;;-0.20;99.90;;;;;;5095052;28;20044;-75
2021/12/15 02:22:12;;;;;;;53.90;8.57;;;-0.30;99.90;;;;;;5094000;28;20036;-75
2021/12/15 02:24:39;;;;;;;98.30;10.63;;;-0.20;99.90;;;;;;5095001;28;20404;-75
2021/12/15 02:27:07;;;;;;;27.63;6.22;;;-0.30;99.90;;;;;;5076789;28;20496;-75
2021/12/15 02:29:39;;;;;;;10.07;6.25;;;-0.30;99.90;;;;;;5076764;28;20036;-75
2021/12/15 02:32:17;;;;;;;10.52;5.63;;;-0.30;99.90;;;;;;5094370;28;20055;-75
2021/12/15 02:37:28;;;;;;;10.57;5.78;;;-0.30;99.90;;;;;;5094771;28;20035;-75
2021/12/15 02:40:00;;;;;;;8.55;5.97;;;-0.30;99.90;;;;;;5094489;28;20048;-75
2021/12/15 02:42:33;;;;;;;8.75;5.75;;;-0.30;99.90;;;;;;5094198;28;20036;-75
2021/12/15 02:44:59;;;;;;;10.15;5.10;;;;;;;;;;5094658;28;20411;-75
2021/12/15 02:47:28;;;;;;;15.82;5.57;;;-0.10;99.90;;;;;;5094499;28;20583;-75
2021/12/15 02:49:56;;;;;;;15.23;5.22;;;0.00;99.90;;;;;;5076118;28;20059;-75
2021/12/15 02:52:23;;;;;;;14.70;6.93;;;0.00;99.90;;;;;;5094673;28;20085;-75
2021/12/15 02:54:49;;;;;;;57.67;6.88;;;0.10;99.90;;;;;;5094600;28;20044;-75
2021/12/15 02:57:15;;;;;;;75.25;8.15;;;0.00;99.90;;;;;;5094418;28;20043;-76
2021/12/15 02:59:58;;;;;;;84.53;10.10;;;0.00;99.90;;;;;;5094288;28;20038;-75
2021/12/15 03:05:32;;;;;;;54.15;7.88;;;-0.20;99.90;;;;;;5094367;28;20460;-76
2021/12/15 03:08:12;;;;;;;7.55;5.45;;;-0.10;99.90;;;;;;5094297;28;20051;-75
2021/12/15 03:16:11;;;;;;;6.90;4.57;;;-0.10;99.90;;;;;;5094027;28;20109;-75
2021/12/15 03:18:37;;;;;;;11.55;4.68;;;-0.10;99.90;;;;;;5093772;28;20079;-75
2021/12/15 03:21:25;;;;;;;28.45;4.65;;;-0.10;99.90;;;;;;5075343;28;20181;-75
2021/12/15 03:23:58;;;;;;;30.17;5.30;;;-0.10;99.90;;;;;;5093887;28;20119;-75
2021/12/15 03:26:38;;;;;;;69.85;6.32;;;-0.10;99.90;;;;;;5093349;28;20050;-75
2021/12/15 03:34:50;;;;;;;251.90;12.43;;;0.00;99.90;;;;;;5088535;28;20076;-76
2021/12/15 03:37:25;;;;;;;19.42;5.53;;;0.00;99.90;;;;;;5071586;28;20040;-75
2021/12/15 03:40:15;;;;;;;15.70;6.18;;;0.10;99.90;;;;;;5073210;28;20033;-76
2021/12/15 03:42:50;;;;;;;23.25;6.35;;;0.10;99.90;;;;;;5073261;28;20037;-75
2021/12/15 03:45:25;;;;;;;50.58;6.25;;;0.10;99.90;;;;;;5073163;28;20049;-76
2021/12/15 03:47:53;;;;;;;22.30;5.75;;;0.00;99.90;;;;;;5055020;28;20036;-75
2021/12/15 03:50:21;;;;;;;64.70;7.40;;;-0.10;99.90;;;;;;5055133;28;20039;-75
2021/12/15 03:52:49;;;;;;;19.73;5.85;;;-0.10;99.90;;;;;;5055314;28;20048;-75
2021/12/15 03:55:22;;;;;;;54.00;6.00;;;0.00;99.90;;;;;;5073060;28;20395;-75
2021/12/15 03:57:48;;;;;;;16.30;4.93;;;-0.10;99.90;;;;;;5054878;28;20040;-75
2021/12/15 04:00:16;;;;;;;60.92;6.68;;;-0.20;99.90;;;;;;5072869;28;20052;-75
2021/12/15 04:02:43;;;;;;;15.05;5.68;;;-0.20;99.90;;;;;;5071485;28;20033;-75
2021/12/15 04:05:11;;;;;;;52.50;6.07;;;-0.10;99.90;;;;;;5073049;28;20074;-75
2021/12/15 04:07:37;;;;;;;7.43;5.20;;;-0.20;99.90;;;;;;5087136;28;20036;-75
2021/12/15 04:10:09;;;;;;;14.38;5.70;;;-0.20;99.90;;;;;;5075289;28;20151;-75
2021/12/15 04:12:36;;;;;;;13.68;5.50;;;-0.10;99.90;;;;;;5093213;28;20075;-75
2021/12/15 04:17:53;;;;;;;21.10;6.47;;;-0.10;99.90;;;;;;5093531;28;20122;-76
2021/12/15 04:20:22;;;;;;;232.35;14.25;;;-0.10;99.90;;;;;;5093156;28;20024;-75
2021/12/15 04:22:49;;;;;;;66.22;8.43;;;0.00;99.90;;;;;;5093170;28;20039;-75
2021/12/15 04:25:23;;;;;;;450.45;25.27;;;0.10;99.90;;;;;;5092508;28;20060;-76
2021/12/15 04:27:56;;;;;;;25.27;6.28;;;0.10;99.90;;;;;;5072966;28;20074;-75
2021/12/15 04:30:24;;;;;;;212.50;12.73;;;0.10;99.90;;;;;;5072610;28;20507;-75
2021/12/15 04:32:51;;;;;;;83.43;8.00;;;0.10;99.90;;;;;;5054744;28;20032;-76
2021/12/15 04:35:17;;;;;;;50.90;6.25;;;0.10;99.90;;;;;;5072499;28;20432;-80
2021/12/15 04:37:45;;;;;;;44.60;5.57;;;0.10;99.90;;;;;;5073443;28;20032;-75
2021/12/15 04:40:14;;;;;;;65.22;7.40;;;0.10;99.90;;;;;;5058496;28;20040;-75
2021/12/15 04:42:43;;;;;;;9.07;5.32;;;0.00;99.90;;;;;;5075218;28;20032;-76
2021/12/15 04:45:12;;;;;;;29.38;5.50;;;-0.10;99.90;;;;;;5058783;28;20415;-76
2021/12/15 04:47:39;;;;;;;47.42;6.10;;;-0.10;99.90;;;;;;5068011;28;20398;-75
2021/12/15 04:50:07;;;;;;;49.95;6.53;;;-0.20;99.90;;;;;;5096514;28;20078;-76
2021/12/15 04:52:33;;;;;;;14.52;4.72;;;-0.20;99.90;;;;;;5095408;28;20601;-76
2021/12/15 04:55:00;;;;;;;10.43;5.70;;;-0.40;99.90;;;;;;5096060;28;20063;-77
2021/12/15 04:57:27;;;;;;;50.78;6.60;;;-0.30;99.90;;;;;;5078265;28;20052;-76
2021/12/15 04:59:53;;;;;;;8.00;5.15;;;-0.30;99.90;;;;;;5096421;28;20492;-75
2021/12/15 05:02:20;;;;;;;4.75;4.15;;;-0.30;99.90;;;;;;5078198;28;20131;-76
2021/12/15 05:04:47;;;;;;;13.63;5.07;;;-0.30;99.90;;;;;;5096321;28;20097;-76
2021/12/15 05:07:14;;;;;;;52.53;6.63;;;-0.20;99.90;;;;;;5096431;28;20043;-77
2021/12/15 05:09:40;;;;;;;14.15;4.80;;;-0.10;99.90;;;;;;5096535;28;20073;-82
2021/12/15 05:12:07;;;;;;;129.48;9.57;;;0.00;99.90;;;;;;5096443;28;20048;-76
2021/12/15 05:14:33;;;;;;;30.08;5.22;;;0.00;99.90;;;;;;5096519;28;20051;-77
2021/12/15 05:16:59;;;;;;;10.43;4.68;;;0.00;99.90;;;;;;5078282;28;20036;-77
2021/12/15 05:19:27;;;;;;;5.10;4.15;;;0.00;99.90;;;;;;5077696;28;20128;-76
2021/12/15 05:21:58;;;;;;;8.88;4.65;;;0.00;99.90;;;;;;5096080;28;20060;-78
2021/12/15 05:26:54;;;;;;;7.47;4.20;;;0.00;99.90;;;;;;5096319;28;20044;-78
2021/12/15 05:29:20;;;;;;;6.68;5.13;;;0.00;99.90;;;;;;5095875;28;20032;-77
2021/12/15 05:31:47;;;;;;;15.23;5.75;;;0.00;99.90;;;;;;5096068;28;20052;-78
2021/12/15 05:34:13;;;;;;;16.15;5.00;;;0.00;99.90;;;;;;5095885;28;20535;-77
2021/12/15 05:36:38;;;;;;;8.00;4.53;;;-0.10;99.90;;;;;;5111436;28;20126;-78
2021/12/15 05:39:06;;;;;;;5.60;4.30;;;-0.10;99.90;;;;;;5077690;28;20031;-79
2021/12/15 05:41:33;;;;;;;21.42;4.65;;;-0.10;99.90;;;;;;5077456;28;20043;-85
2021/12/15 05:43:59;;;;;;;363.80;17.58;;;-0.10;99.90;;;;;;5095873;28;20079;-79
2021/12/15 05:46:25;;;;;;;119.78;7.38;;;-0.20;99.90;;;;;;5095720;28;20574;-78
2021/12/15 05:48:51;;;;;;;624.25;28.83;;;-0.10;99.90;;;;;;5076718;28;20132;-78
2021/12/15 05:51:17;;;;;;;273.48;15.93;;;0.00;99.90;;;;;;5095461;28;20056;-78
2021/12/15 05:53:43;;;;;;;381.13;22.15;;;0.00;99.90;;;;;;5077916;28;20036;-78
2021/12/15 05:56:10;;;;;;;15.50;6.07;;;0.00;99.90;;;;;;5095496;28;20047;-82
2021/12/15 05:58:37;;;;;;;203.55;13.13;;;0.00;99.90;;;;;;5076583;28;20451;-81
2021/12/15 06:01:04;;;;;;;82.80;7.97;;;0.00;99.90;;;;;;5095104;28;20047;-81
2021/12/15 06:03:31;;;;;;;84.68;7.60;;;0.00;99.90;;;;;;5077096;28;20414;-81
2021/12/15 06:05:57;;;;;;;25.15;5.35;;;0.00;99.90;;;;;;5095365;28;20039;-83
2021/12/15 06:08:22;;;;;;;35.92;5.95;;;0.20;99.90;;;;;;5076870;28;20032;-82
2021/12/15 06:10:49;;;;;;;8.73;4.25;;;-0.10;99.90;;;;;;5095314;28;20419;-81
2021/12/15 06:13:14;;;;;;;7.97;5.25;;;-0.20;99.90;;;;;;5077051;28;20503;-80
2021/12/15 06:15:43;;;;;;;24.65;5.40;;;-0.30;99.90;;;;;;5094459;28;20042;-81
2021/12/15 06:18:15;;;;;;;26.25;4.93;;;-0.30;99.90;;;;;;5076202;28;20039;-81
2021/12/15 06:20:42;;;;;;;45.40;6.05;;;-0.30;99.90;;;;;;5094533;28;20068;-80
2021/12/15 06:23:12;;;;;;;66.07;7.15;;;-0.40;99.90;;;;;;5076959;28;20035;-80
2021/12/15 06:25:41;;;;;;;51.75;6.28;;;-0.40;99.90;;;;;;5076146;28;20047;-80
2021/12/15 06:28:08;;;;;;;8.27;4.55;;;-0.40;99.90;;;;;;5095124;28;20039;-80
2021/12/15 06:30:35;;;;;;;48.25;7.60;;;-0.30;99.90;;;;;;5076060;28;20126;-83
2021/12/15 06:33:01;;;;;;;104.40;8.05;;;-0.20;99.90;;;;;;5094494;28;20043;-78
2021/12/15 06:35:27;;;;;;;19.45;5.57;;;-0.30;99.90;;;;;;5094281;28;20047;-80
2021/12/15 06:37:53;;;;;;;84.13;7.03;;;-0.30;99.90;;;;;;5094406;28;20465;-80
2021/12/15 06:40:19;;;;;;;10.32;4.78;;;-0.30;99.90;;;;;;5085092;28;20770;-78
2021/12/15 06:42:45;;;;;;;10.70;4.90;;;-0.20;99.90;;;;;;5073991;28;20039;-77
2021/12/15 06:45:16;;;;;;;26.02;4.55;;;-0.20;99.90;;;;;;5055957;28;20044;-78
2021/12/15 06:57:27;;;;;;;18.50;4.70;;;-0.30;99.90;;;;;;5075646;28;20116;-78
2021/12/15 06:58:49;;;;;;;54.70;6.00;;;-0.30;99.90;;;;;;5084683;28;20798;-76
2021/12/15 07:01:15;;;;;;;35.45;5.45;;;-0.40;99.90;;;;;;5084981;28;20093;-77
2021/12/15 07:03:41;;;;;;;49.38;5.68;;;-0.30;99.90;;;;;;5088282;28;20040;-77
2021/12/15 07:06:07;;;;;;;40.22;5.03;;;-0.30;99.90;;;;;;5084852;28;20043;-76
2021/12/15 07:08:33;;;;;;;46.72;5.10;;;-0.30;99.90;;;;;;5088155;28;20036;-77
2021/12/15 07:11:01;;;;;;;24.58;4.88;;;-0.30;99.90;;;;;;5072356;28;20048;-77
2021/12/15 07:13:28;;;;;;;14.95;4.50;;;-0.30;99.90;;;;;;5068400;28;20036;-77
2021/12/15 07:16:00;;;;;;;30.70;5.60;;;-0.30;99.90;;;;;;5051215;28;20036;-76
2021/12/15 07:18:53;;;;;;;56.90;6.05;;;-0.20;99.90;;;;;;5050457;28;20071;-76
2021/12/15 07:21:23;;;;;;;57.45;9.85;;;-0.40;99.90;;;;;;5051285;28;20071;-77
2021/12/15 07:23:53;;;;;;;67.10;11.43;;;-0.40;99.90;;;;;;5071319;28;20043;-77
2021/12/15 07:26:19;;;;;;;67.25;10.82;;;-0.40;99.90;;;;;;5069553;28;20036;-78
2021/12/15 07:28:45;;;;;;;26.80;11.73;;;-0.50;99.90;;;;;;5070007;28;20044;-77
2021/12/15 07:31:12;;;;;;;40.60;10.13;;;-0.50;99.90;;;;;;5050887;28;20498;-78
2021/12/15 07:33:38;;;;;;;44.13;11.02;;;-0.40;99.90;;;;;;5069045;28;20036;-77
2021/12/15 07:36:05;;;;;;;53.88;11.88;;;-0.40;99.90;;;;;;5069277;28;20040;-77
2021/12/15 07:38:31;;;;;;;27.55;10.55;;;-0.30;99.90;;;;;;5074541;28;20039;-76
2021/12/15 07:40:59;;;;;;;113.57;12.05;;;-0.30;99.90;;;;;;5073851;28;20044;-77
2021/12/15 07:43:25;;;;;;;116.22;12.15;;;-0.10;99.90;;;;;;5079505;28;20028;-77
2021/12/15 07:45:58;;;;;;;50.83;8.38;;;-0.20;99.90;;;;;;5067870;28;20044;-76
2021/12/15 07:48:34;;;;;;;187.52;12.02;;;-0.10;99.90;;;;;;5070634;28;20706;-76
2021/12/15 07:51:05;;;;;;;74.13;8.10;;;0.00;99.90;;;;;;5074240;28;20062;-77
2021/12/15 07:53:33;;;;;;;95.25;9.30;;;0.00;99.90;;;;;;5072726;28;20092;-76
2021/12/15 07:56:02;;;;;;;162.43;12.23;;;0.00;99.90;;;;;;5092731;28;20050;-76
2021/12/15 07:58:29;;;;;;;249.40;16.08;;;0.10;99.90;;;;;;5092267;28;20094;-76
2021/12/15 08:01:02;;;;;;;204.88;25.05;;;0.10;99.90;;;;;;5090680;28;20032;-76
2021/12/15 08:03:29;;;;;;;386.13;34.08;;;0.10;99.90;;;;;;5092116;28;20044;-76
2021/12/15 08:05:58;;;;;;;30.38;11.75;;;0.10;99.90;;;;;;5092726;28;20043;-77
2021/12/15 08:08:30;;;;;;;29.63;10.50;;;0.10;99.90;;;;;;5072055;28;20124;-78
2021/12/15 08:10:57;;;;;;;76.32;13.45;;;0.10;99.90;;;;;;5090250;28;20055;-77
2021/12/15 08:13:27;;;;;;;24.15;8.25;;;-0.10;99.90;;;;;;5090606;28;20028;-77
2021/12/15 08:15:53;;;;;;;95.07;9.25;;;-0.20;99.90;;;;;;5090093;28;20237;-76
2021/12/15 08:18:25;;;;;;;33.75;6.93;;;-0.20;99.90;;;;;;5071979;28;20537;-76
2021/12/15 08:20:53;;;;;;;66.22;8.18;;;-0.20;99.90;;;;;;5090232;28;20043;-76
2021/12/15 08:23:21;;;;;;;47.05;7.97;;;-0.30;99.90;;;;;;5090545;28;20043;-76
2021/12/15 08:25:47;;;;;;;108.72;9.30;;;-0.20;99.90;;;;;;5090419;28;20061;-76
2021/12/15 08:28:18;;;;;;;51.95;8.05;;;-0.30;99.90;;;;;;5090397;28;20040;-76
2021/12/15 08:30:46;;;;;;;48.58;8.05;;;-0.30;99.90;;;;;;5090710;28;20087;-76
2021/12/15 08:33:18;;;;;;;40.03;8.82;;;-0.20;99.90;;;;;;5091422;28;20035;-76
2021/12/15 08:36:23;;;;;;;47.30;8.70;;;-0.30;99.90;;;;;;5090487;28;20040;-76
2021/12/15 08:38:56;;;;;;;44.50;8.25;;;-0.20;99.90;;;;;;5008516;28;20034;-76
2021/12/15 08:41:28;;;;;;;91.00;10.55;;;-0.20;99.90;;;;;;5009532;28;20137;-76
2021/12/15 08:43:56;;;;;;;14.50;7.35;;;-0.20;99.90;;;;;;5070155;28;20071;-75
2021/12/15 08:46:38;;;;;;;60.97;9.52;;;0.00;99.90;;;;;;5090866;28;20514;-75
2021/12/15 08:49:09;;;;;;;16.23;7.82;;;0.10;99.90;;;;;;5090340;28;20047;-75
2021/12/15 08:51:36;;;;;;;;;;;0.00;99.90;;;;;;5055766;28;20086;-75
2021/12/15 08:54:14;;;;;;;39.30;8.63;;;-0.10;99.90;;;;;;5089964;28;19954;-75
2021/12/15 08:56:43;;;;;;;110.28;10.30;;;0.00;99.90;;;;;;5089352;28;20071;-75
2021/12/15 08:59:12;;;;;;;110.15;10.38;;;-0.10;99.90;;;;;;5089890;28;20040;-74
2021/12/15 09:01:41;;;;;;;134.40;13.45;;;0.10;99.90;;;;;;5089996;28;20036;-76
2021/12/15 09:04:07;;;;;;;37.22;11.73;;;0.10;99.90;;;;;;5089858;28;20439;-74
2021/12/15 09:06:35;;;;;;;40.60;11.20;;;0.20;99.90;;;;;;5088321;28;20127;-75
2021/12/15 09:09:03;;;;;;;118.25;10.90;;;0.20;99.90;;;;;;5073373;28;20418;-74
2021/12/15 09:11:32;;;;;;;59.08;8.23;;;0.20;99.90;;;;;;5089908;28;20044;-75
2021/12/15 09:14:07;;;;;;;40.80;7.13;;;0.20;99.90;;;;;;5089784;28;20131;-74
2021/12/15 09:16:37;;;;;;;85.32;8.52;;;0.20;99.90;;;;;;5088836;28;20525;-74
2021/12/15 09:19:04;;;;;;;58.15;6.38;;;0.40;99.90;;;;;;5088353;28;20403;-74
2021/12/15 09:21:33;;;;;;;38.10;5.70;;;0.30;99.90;;;;;;5090182;28;20090;-74
2021/12/15 09:24:01;;;;;;;15.35;6.50;;;0.40;99.90;;;;;;5089469;28;20047;-74
2021/12/15 09:26:27;;;;;;;39.38;6.78;;;0.30;99.90;;;;;;5092358;28;20155;-73
2021/12/15 09:28:58;;;;;;;25.50;5.35;;;0.40;99.90;;;;;;5093609;28;20055;-74
2021/12/15 09:31:25;;;;;;;187.23;13.70;;;0.40;99.90;;;;;;5092434;28;20415;-73
2021/12/15 09:33:55;;;;;;;29.10;14.55;;;0.40;99.90;;;;;;5093879;28;20471;-74
2021/12/15 09:36:23;;;;;;;49.85;31.25;;;0.60;99.90;;;;;;5093829;28;20151;-74
2021/12/15 09:38:57;;;;;;;85.00;49.53;;;0.70;99.90;;;;;;5094432;28;20032;-74
2021/12/15 09:41:24;;;;;;;50.92;10.20;;;0.70;99.90;;;;;;5095553;28;20571;-74
2021/12/15 09:43:52;;;;;;;63.53;11.77;;;0.60;99.90;;;;;;5094182;28;20119;-79
2021/12/15 09:46:36;;;;;;;84.63;9.73;;;0.60;99.90;;;;;;5095078;28;20040;-75
2021/12/15 10:02:55;;;;;;;45.10;17.90;;;0.80;99.90;;;;;;5095049;28;20082;-74
2021/12/15 10:19:40;;;;;;;116.80;13.50;;;1.10;99.90;;;;;;5094907;28;20073;-74
2021/12/15 10:22:26;;;;;;;81.95;13.02;;;1.10;99.90;;;;;;5079528;28;20047;-73
2021/12/15 10:24:56;;;;;;;38.65;11.13;;;0.90;99.90;;;;;;5094591;28;20104;-73
2021/12/15 10:27:38;;;;;;;65.53;12.43;;;0.90;99.90;;;;;;5094702;28;20051;-73
2021/12/15 10:30:09;;;;;;;229.88;16.10;;;1.10;99.90;;;;;;5076330;28;20051;-73
2021/12/15 10:32:38;;;;;;;44.40;11.55;;;1.10;99.90;;;;;;5094653;28;20044;-74
2021/12/15 10:35:09;;;;;;;75.00;17.52;;;1.20;99.90;;;;;;5094539;28;20044;-73
2021/12/15 10:37:35;;;;;;;90.75;11.85;;;1.10;99.90;;;;;;5094494;28;20051;-73
2021/12/15 10:40:15;;;;;;;142.20;12.88;;;0.90;99.90;;;;;;5094354;28;20024;-73
2021/12/15 10:42:42;;;;;;;46.55;10.05;;;0.80;99.90;;;;;;5093085;28;20051;-73
2021/12/15 10:45:11;;;;;;;62.30;9.77;;;0.80;99.90;;;;;;5094256;28;20394;-73
2021/12/15 10:47:49;;;;;;;506.45;27.77;;;0.90;99.90;;;;;;5075982;28;20040;-73
2021/12/15 10:50:19;;;;;;;42.33;8.98;;;0.90;99.90;;;;;;5092673;28;20032;-73
2021/12/15 10:52:59;;;;;;;28.88;8.27;;;0.80;99.90;;;;;;5094272;28;20062;-73
2021/12/15 10:55:31;;;;;;;131.23;13.45;;;0.90;99.90;;;;;;5094192;28;20032;-73
2021/12/15 10:57:57;;;;;;;26.27;8.35;;;0.90;99.90;;;;;;5094140;28;20576;-74
2021/12/15 11:00:23;;;;;;;47.95;9.05;;;0.90;99.90;;;;;;5077001;28;20044;-73
2021/12/15 11:02:49;;;;;;;373.75;24.80;;;1.10;99.90;;;;;;5093840;28;20043;-73
2021/12/15 11:05:19;;;;;;;119.60;11.05;;;1.10;99.90;;;;;;5093911;28;20039;-73
2021/12/15 11:07:52;;;;;;;24.85;15.23;;;1.20;99.90;;;;;;5093973;28;20044;-73
2021/12/15 11:10:26;;;;;;;21.83;14.50;;;1.40;99.90;;;;;;5093715;28;20498;-73
2021/12/15 11:12:57;;;;;;;50.05;19.02;;;1.40;99.90;;;;;;5109369;28;20042;-73
2021/12/15 11:15:33;;;;;;;37.78;14.77;;;1.50;99.90;;;;;;5093582;28;20118;-73
2021/12/15 11:18:05;;;;;;;130.25;16.38;;;1.50;99.90;;;;;;5075346;28;20040;-73
2021/12/15 11:20:34;;;;;;;104.20;18.98;;;1.50;99.90;;;;;;5109211;28;20032;-73
2021/12/15 11:23:02;;;;;;;30.88;14.60;;;1.40;99.90;;;;;;5075230;28;20044;-73
2021/12/15 11:25:40;;;;;;;116.90;16.20;;;1.60;99.90;;;;;;5075163;28;20035;-74
2021/12/15 11:28:53;;;;;;;47.97;16.30;;;1.60;99.90;;;;;;5093084;28;20036;-72
2021/12/15 11:31:28;;;;;;;29.85;14.93;;;1.60;99.90;;;;;;5070249;28;20046;-73
2021/12/15 11:34:05;;;;;;;79.00;15.18;;;1.60;99.90;;;;;;5093291;28;20140;-73
2021/12/15 11:36:44;;;;;;;135.07;20.55;;;1.60;99.90;;;;;;5108894;28;20379;-73
2021/12/15 11:39:20;;;;;;;305.92;23.85;;;1.70;99.90;;;;;;5093303;28;20059;-73
2021/12/15 11:41:52;;;;;;;43.17;20.02;;;1.60;99.90;;;;;;5088281;28;20044;-73
2021/12/15 11:44:25;;;;;;;71.00;21.25;;;1.70;99.90;;;;;;5074972;28;20089;-73
2021/12/15 11:46:58;;;;;;;74.85;16.73;;;1.70;99.90;;;;;;5074627;28;20036;-73
2021/12/15 11:49:34;;;;;;;208.30;19.52;;;1.80;99.90;;;;;;5092193;28;20070;-74
2021/12/15 11:52:00;;;;;;;30.38;14.75;;;1.80;99.90;;;;;;5071781;28;20137;-73
2021/12/15 11:54:36;;;;;;;143.15;17.08;;;1.90;99.90;;;;;;5085258;28;20527;-73
2021/12/15 11:57:25;;;;;;;26.55;15.38;;;1.80;99.90;;;;;;5072395;28;20086;-73
2021/12/15 12:00:06;;;;;;;43.90;17.15;;;1.80;99.90;;;;;;5089206;28;20036;-74
2021/12/15 12:02:41;;;;;;;192.05;21.83;;;1.80;99.90;;;;;;5073145;28;20051;-74
2021/12/15 12:05:13;;;;;;;74.15;17.95;;;1.70;99.90;;;;;;5088537;28;20047;-75
2021/12/15 12:07:46;;;;;;;214.35;25.27;;;1.80;99.90;;;;;;5090151;28;20046;-74
2021/12/15 12:10:20;;;;;;;98.03;21.90;;;2.20;99.90;;;;;;5079126;28;20036;-74
2021/12/15 12:12:52;;;;;;;179.68;47.85;;;1.90;99.90;;;;;;5071372;28;20149;-74
2021/12/15 12:15:27;;;;;;;67.68;20.15;;;1.90;99.90;;;;;;5071533;28;20448;-74
2021/12/15 12:17:57;;;;;;;82.38;20.55;;;2.00;99.90;;;;;;5071605;28;20051;-74
2021/12/15 12:20:28;;;;;;;110.37;22.60;;;2.00;99.90;;;;;;5053177;28;20045;-73
2021/12/15 12:22:57;;;;;;;369.77;25.90;;;1.70;99.90;;;;;;5070166;28;20060;-73
2021/12/15 12:25:26;;;;;;;336.45;22.98;;;1.50;99.90;;;;;;5070856;28;20048;-73
2021/12/15 12:27:54;;;;;;;562.35;200.60;;;1.30;99.90;;;;;;5071184;28;20043;-73
2021/12/15 12:30:28;;;;;;;270.48;23.67;;;1.50;99.90;;;;;;5081279;28;20055;-73
2021/12/15 12:32:55;;;;;;;285.48;21.67;;;1.50;99.90;;;;;;5071153;28;20131;-74
2021/12/15 12:35:26;;;;;;;543.58;55.13;;;1.40;99.90;;;;;;5071277;28;20036;-74
2021/12/15 12:38:00;;;;;;;127.82;15.15;;;1.50;99.90;;;;;;5070677;28;20045;-74
2021/12/15 12:40:34;;;;;;;217.18;17.25;;;1.60;99.90;;;;;;5070853;28;20044;-74
2021/12/15 12:43:15;;;;;;;161.30;24.13;;;1.40;99.90;;;;;;5070873;28;20039;-74
2021/12/15 12:45:42;;;;;;;72.97;11.10;;;1.30;99.90;;;;;;5054216;28;20573;-75
2021/12/15 12:48:36;;;;;;;125.55;13.05;;;1.20;99.90;;;;;;5068889;28;20043;-75
2021/12/15 12:59:43;;;;;;;37.10;23.05;;;1.70;99.90;;;;;;5072309;28;20175;-75
2021/12/15 13:02:38;;;;;;;396.55;68.70;;;1.60;99.90;;;;;;5073703;28;20129;-75
2021/12/15 13:05:07;;;;;;;45.80;17.88;;;1.70;99.90;;;;;;5073768;28;20120;-77
2021/12/15 13:07:52;;;;;;;203.77;23.65;;;1.60;99.90;;;;;;5073208;28;20044;-76
2021/12/15 13:10:21;;;;;;;24.35;11.20;;;1.60;99.90;;;;;;5055522;28;20036;-76
2021/12/15 13:12:47;;;;;;;18.58;11.13;;;1.60;99.90;;;;;;5073883;28;20128;-77
2021/12/15 13:15:21;;;;;;;191.25;55.95;;;1.70;99.90;;;;;;5054289;28;20040;-77
2021/12/15 13:18:01;;;;;;;46.35;20.13;;;2.00;99.90;;;;;;5072305;28;20033;-77
2021/12/15 13:20:34;;;;;;;328.58;26.70;;;1.90;99.90;;;;;;5072364;28;20055;-76
2021/12/15 13:23:27;;;;;;;213.80;26.30;;;1.70;99.90;;;;;;5072200;28;20086;-77
2021/12/15 13:28:44;;;;;;;206.30;17.25;;;1.40;99.90;;;;;;5093966;28;20496;-75
2021/12/15 13:31:19;;;;;;;250.70;16.95;;;1.40;99.90;;;;;;5094112;28;20063;-75
2021/12/15 13:33:48;;;;;;;313.20;21.40;;;1.40;99.90;;;;;;5094507;28;20506;-78
2021/12/15 13:36:20;;;;;;;252.52;18.50;;;1.30;99.90;;;;;;5094798;28;20040;-76
2021/12/15 13:38:49;;;;;;;131.50;12.82;;;1.50;99.90;;;;;;5095256;28;20040;-76
2021/12/15 13:41:41;;;;;;;148.73;14.65;;;1.50;99.90;;;;;;5074919;28;20035;-77
2021/12/15 13:44:35;;;;;;;486.00;25.45;;;1.50;99.90;;;;;;5093910;28;20097;-78
2021/12/15 13:47:08;;;;;;;386.02;21.88;;;1.60;99.90;;;;;;5093911;28;20047;-76
2021/12/15 13:49:40;;;;;;;52.40;11.82;;;1.60;99.90;;;;;;5093994;28;20036;-76
2021/12/15 13:52:06;;;;;;;82.65;12.32;;;1.60;99.90;;;;;;5074702;28;20051;-76
2021/12/15 13:54:37;;;;;;;128.38;12.63;;;1.60;99.90;;;;;;5093948;28;20398;-76
2021/12/15 13:57:03;;;;;;;18.98;9.70;;;1.60;99.90;;;;;;5093586;28;20040;-75
2021/12/15 13:59:35;;;;;;;60.20;11.52;;;1.60;99.90;;;;;;5093723;28;20137;-76
2021/12/15 14:02:10;;;;;;;66.32;11.57;;;1.70;99.90;;;;;;5093484;28;20043;-76
2021/12/15 14:04:46;;;;;;;22.52;10.68;;;1.70;99.90;;;;;;5093728;28;20127;-77
2021/12/15 14:07:30;;;;;;;527.47;28.77;;;1.70;99.90;;;;;;5092999;28;20398;-76
2021/12/15 14:09:59;;;;;;;47.35;21.27;;;1.70;99.90;;;;;;5074891;28;20046;-76
2021/12/15 14:12:49;;;;;;;177.63;16.30;;;1.80;99.90;;;;;;5093261;28;20036;-76
2021/12/15 14:15:37;;;;;;;123.00;13.25;;;1.70;99.90;;;;;;5075137;28;20127;-77
2021/12/15 14:18:17;;;;;;;83.75;13.07;;;1.60;99.90;;;;;;5075155;28;20039;-77